createdAt,value
2023-04-26T00:00:10.396Z,5.48
2023-04-26T00:02:39.113Z,5.76
2023-04-26T00:05:09.768Z,5.99
2023-04-26T00:07:39.382Z,5.87
2023-04-26T00:10:09.033Z,5.46
2023-04-26T00:12:38.305Z,5.41
2023-04-26T00:15:09.723Z,5.58
2023-04-26T00:17:38.311Z,5.73
2023-04-26T00:20:09.580Z,5.39
2023-04-26T00:22:38.141Z,5.63
2023-04-26T00:25:07.639Z,5.67
2023-04-26T00:27:36.216Z,5.77
2023-04-26T00:30:05.435Z,5.90
2023-04-26T00:32:36.548Z,5.98
2023-04-26T00:35:08.579Z,6.07
2023-04-26T00:37:37.184Z,6.10
2023-04-26T00:40:07.475Z,6.20
2023-04-26T00:42:36.219Z,6.43
2023-04-26T00:45:05.463Z,6.49
2023-04-26T00:47:35.590Z,6.77
2023-04-26T00:50:05.263Z,6.89
2023-04-26T00:52:33.888Z,6.92
2023-04-26T00:55:03.391Z,6.72
2023-04-26T00:57:31.834Z,6.52
2023-04-26T01:00:00.300Z,6.65
2023-04-26T01:02:29.029Z,6.73
2023-04-26T01:04:59.034Z,6.79
2023-04-26T01:07:27.536Z,6.96
2023-04-26T01:09:58.070Z,6.99
2023-04-26T01:12:27.794Z,7.06
2023-04-26T01:14:57.449Z,7.04
2023-04-26T01:17:26.194Z,7.02
2023-04-26T01:19:54.817Z,6.93
2023-04-26T01:22:24.659Z,6.84
2023-04-26T01:24:56.724Z,6.79
2023-04-26T01:27:27.057Z,6.73
2023-04-26T01:29:55.647Z,6.67
2023-04-26T01:32:25.333Z,6.60
2023-04-26T01:34:53.858Z,6.61
2023-04-26T01:37:22.355Z,6.55
2023-04-26T01:39:50.897Z,6.50
2023-04-26T01:42:23.165Z,6.46
2023-04-26T01:44:52.393Z,6.38
2023-04-26T01:47:21.078Z,6.37
2023-04-26T01:49:49.568Z,6.39
2023-04-26T01:52:18.125Z,6.31
2023-04-26T01:54:47.704Z,6.30
2023-04-26T01:57:16.144Z,6.24
2023-04-26T01:59:47.746Z,6.34
2023-04-26T02:02:18.824Z,6.38
2023-04-26T02:04:47.228Z,6.38
2023-04-26T02:07:16.526Z,6.36
2023-04-26T02:09:48.045Z,6.46
2023-04-26T02:12:16.682Z,6.49
2023-04-26T02:14:45.536Z,6.52
2023-04-26T02:17:16.527Z,6.47
2023-04-26T02:19:44.949Z,6.48
2023-04-26T02:22:13.492Z,6.52
2023-04-26T02:24:43.293Z,6.51
2023-04-26T02:27:11.820Z,6.57
2023-04-26T02:29:43.709Z,6.52
2023-04-26T02:32:15.810Z,6.45
2023-04-26T02:34:44.751Z,6.44
2023-04-26T02:37:13.171Z,6.38
2023-04-26T02:39:41.927Z,6.31
2023-04-26T02:42:11.327Z,6.13
2023-04-26T02:44:40.224Z,5.99
2023-04-26T02:47:09.817Z,6.02
2023-04-26T02:49:40.184Z,5.90
2023-04-26T02:52:08.781Z,5.92
2023-04-26T02:54:37.292Z,5.74
2023-04-26T02:57:05.956Z,5.69
2023-04-26T02:59:34.420Z,5.55
2023-04-26T03:02:03.250Z,5.62
2023-04-26T03:04:36.280Z,5.48
2023-04-26T03:07:06.589Z,5.41
2023-04-26T03:09:38.399Z,5.45
2023-04-26T03:12:08.385Z,5.31
2023-04-26T03:14:38.353Z,5.24
2023-04-26T03:17:07.207Z,5.24
2023-04-26T03:19:36.185Z,5.22
2023-04-26T03:22:07.900Z,5.15
2023-04-26T03:24:36.608Z,5.19
2023-04-26T03:27:05.616Z,5.18
2023-04-26T03:29:34.608Z,5.12
2023-04-26T03:32:03.255Z,5.13
2023-04-26T03:34:31.906Z,5.19
2023-04-26T03:37:00.662Z,5.17
2023-04-26T03:39:30.788Z,5.23
2023-04-26T03:41:59.547Z,5.28
2023-04-26T03:44:29.290Z,5.32
2023-04-26T03:46:59.816Z,5.31
2023-04-26T03:49:28.492Z,5.37
2023-04-26T03:52:00.582Z,5.43
2023-04-26T03:54:30.870Z,5.48
2023-04-26T03:56:59.741Z,5.50
2023-04-26T03:59:28.530Z,5.53
2023-04-26T04:01:57.324Z,5.55
2023-04-26T04:04:26.516Z,5.51
2023-04-26T04:06:56.249Z,5.55
2023-04-26T04:09:25.482Z,5.62
2023-04-26T04:11:56.824Z,5.63
2023-04-26T04:14:25.894Z,5.72
2023-04-26T04:16:54.611Z,5.81
2023-04-26T04:19:23.260Z,5.92
2023-04-26T04:21:52.030Z,5.92
2023-04-26T04:24:24.163Z,6.02
2023-04-26T04:26:53.758Z,6.08
2023-04-26T04:29:23.928Z,6.07
2023-04-26T04:31:52.638Z,6.18
2023-04-26T04:34:21.797Z,6.08
2023-04-26T04:36:51.328Z,6.25
2023-04-26T04:39:20.064Z,6.23
2023-04-26T04:41:49.190Z,6.32
2023-04-26T04:44:19.505Z,6.34
2023-04-26T04:46:49.776Z,6.37
2023-04-26T04:49:18.967Z,6.48
2023-04-26T04:51:47.539Z,6.73
2023-04-26T04:54:17.522Z,6.73
2023-04-26T04:56:48.537Z,6.98
2023-04-26T04:59:18.306Z,6.98
2023-04-26T05:01:50.755Z,6.95
2023-04-26T05:04:20.709Z,7.08
2023-04-26T05:06:54.605Z,6.93
2023-04-26T05:09:25.054Z,6.99
2023-04-26T05:11:53.865Z,7.01
2023-04-26T05:14:22.469Z,7.01
2023-04-26T05:16:52.833Z,7.10
2023-04-26T05:19:21.433Z,7.15
2023-04-26T05:21:50.435Z,7.25
2023-04-26T05:24:19.183Z,7.26
2023-04-26T05:26:47.826Z,7.38
2023-04-26T05:29:49.411Z,7.52
2023-04-26T05:32:38.287Z,7.71
2023-04-26T05:35:19.510Z,7.71
2023-04-26T05:37:48.132Z,7.65
2023-04-26T05:40:16.889Z,7.82
2023-04-26T05:42:46.423Z,7.90
2023-04-26T05:45:15.001Z,7.82
2023-04-26T05:47:45.273Z,7.91
2023-04-26T05:50:14.031Z,7.76
2023-04-26T05:52:43.114Z,8.08
2023-04-26T05:55:13.580Z,8.36
2023-04-26T05:57:42.243Z,8.28
2023-04-26T06:00:12.726Z,8.20
2023-04-26T06:02:46.529Z,8.36
2023-04-26T06:05:19.357Z,8.56
2023-04-26T06:07:48.903Z,8.69
2023-04-26T06:10:19.663Z,8.57
2023-04-26T06:12:48.606Z,8.66
2023-04-26T06:15:18.868Z,8.93
2023-04-26T06:17:49.172Z,8.60
2023-04-26T06:20:18.246Z,8.67
2023-04-26T06:22:46.864Z,8.87
2023-04-26T06:25:15.714Z,8.70
2023-04-26T06:27:44.479Z,8.68
2023-04-26T06:30:13.413Z,8.81
2023-04-26T06:32:46.181Z,9.07
2023-04-26T06:35:17.543Z,9.33
2023-04-26T06:37:46.303Z,9.34
2023-04-26T06:40:16.104Z,9.13
2023-04-26T06:42:45.775Z,9.30
2023-04-26T06:45:33.102Z,9.48
2023-04-26T06:48:05.033Z,9.46
2023-04-26T06:50:39.509Z,9.47
2023-04-26T06:53:08.407Z,9.42
2023-04-26T06:55:37.023Z,9.37
2023-04-26T06:58:05.586Z,9.37
2023-04-26T07:00:34.217Z,9.31
2023-04-26T07:03:02.847Z,9.16
2023-04-26T07:05:31.711Z,9.41
2023-04-26T07:08:01.987Z,9.45
2023-04-26T07:10:30.734Z,9.57
2023-04-26T07:12:59.378Z,9.46
2023-04-26T07:15:28.259Z,9.66
2023-04-26T07:17:56.814Z,9.64
2023-04-26T07:20:25.620Z,9.76
2023-04-26T07:22:54.340Z,9.86
2023-04-26T07:25:24.330Z,9.64
2023-04-26T07:27:52.842Z,9.57
2023-04-26T07:30:21.307Z,9.66
2023-04-26T07:32:49.952Z,9.57
2023-04-26T07:35:18.767Z,9.40
2023-04-26T07:37:47.409Z,9.16
2023-04-26T07:40:16.645Z,9.06
2023-04-26T07:42:46.756Z,8.90
2023-04-26T07:45:16.020Z,8.81
2023-04-26T07:47:44.735Z,8.73
2023-04-26T07:50:13.721Z,8.72
2023-04-26T07:52:43.498Z,8.71
2023-04-26T07:55:12.459Z,8.78
2023-04-26T07:57:41.870Z,8.75
2023-04-26T08:00:13.618Z,8.83
2023-04-26T08:02:44.489Z,8.90
2023-04-26T08:05:14.848Z,8.92
2023-04-26T08:07:44.436Z,8.96
2023-04-26T08:10:13.183Z,8.99
2023-04-26T08:12:41.849Z,9.01
2023-04-26T08:15:13.659Z,9.17
2023-04-26T08:17:42.329Z,9.19
2023-04-26T08:20:11.850Z,9.22
2023-04-26T08:22:41.023Z,9.29
2023-04-26T08:25:10.122Z,9.52
2023-04-26T08:27:38.801Z,9.67
2023-04-26T08:30:11.942Z,9.67
2023-04-26T08:32:41.190Z,9.71
2023-04-26T08:35:10.926Z,9.64
2023-04-26T08:37:39.892Z,9.83
2023-04-26T08:40:10.944Z,9.81
2023-04-26T08:42:44.112Z,9.76
2023-04-26T08:45:14.443Z,9.62
2023-04-26T08:47:46.334Z,9.73
2023-04-26T08:50:17.114Z,9.66
2023-04-26T08:52:45.892Z,9.79
2023-04-26T08:55:16.675Z,9.89
2023-04-26T08:57:47.455Z,9.93
2023-04-26T09:00:19.916Z,9.92
2023-04-26T09:02:51.388Z,10.01
2023-04-26T09:05:23.908Z,9.95
2023-04-26T09:07:54.951Z,10.08
2023-04-26T09:10:24.141Z,10.17
2023-04-26T09:12:54.264Z,10.37
2023-04-26T09:15:26.636Z,10.57
2023-04-26T09:17:55.720Z,11.05
2023-04-26T09:20:26.168Z,11.14
2023-04-26T09:22:56.453Z,11.18
2023-04-26T09:25:30.826Z,11.13
2023-04-26T09:28:00.368Z,11.02
2023-04-26T09:30:30.967Z,11.18
2023-04-26T09:33:03.517Z,11.18
2023-04-26T09:35:33.732Z,11.27
2023-04-26T09:38:09.601Z,11.49
2023-04-26T09:40:41.766Z,11.51
2023-04-26T09:43:11.856Z,11.34
2023-04-26T09:45:50.636Z,11.31
2023-04-26T09:48:22.913Z,11.15
2023-04-26T09:50:53.750Z,11.53
2023-04-26T09:53:33.682Z,11.58
2023-04-26T09:56:09.681Z,11.86
2023-04-26T09:58:39.676Z,11.91
2023-04-26T10:01:10.752Z,12.03
2023-04-26T10:03:39.929Z,12.23
2023-04-26T10:06:09.557Z,12.60
2023-04-26T10:08:38.570Z,12.74
2023-04-26T10:11:10.740Z,12.95
2023-04-26T10:13:40.424Z,12.70
2023-04-26T10:16:10.809Z,12.78
2023-04-26T10:18:39.731Z,12.74
2023-04-26T10:21:14.282Z,12.57
2023-04-26T10:23:43.490Z,12.57
2023-04-26T10:26:45.144Z,12.75
2023-04-26T10:29:13.943Z,12.97
2023-04-26T10:32:09.693Z,12.93
2023-04-26T10:34:39.435Z,12.79
2023-04-26T10:37:09.240Z,12.93
2023-04-26T10:39:38.382Z,13.18
2023-04-26T10:42:28.184Z,13.21
2023-04-26T10:44:57.624Z,13.39
2023-04-26T10:47:31.657Z,13.40
2023-04-26T10:50:06.363Z,13.38
2023-04-26T10:52:35.676Z,13.24
2023-04-26T10:55:06.490Z,13.29
2023-04-26T10:57:51.648Z,13.38
2023-04-26T11:00:27.933Z,13.51
2023-04-26T11:03:04.116Z,13.90
2023-04-26T11:05:49.744Z,14.09
2023-04-26T11:08:20.979Z,13.75
2023-04-26T11:10:58.083Z,13.79
2023-04-26T11:13:26.980Z,14.07
2023-04-26T11:16:04.487Z,14.09
2023-04-26T11:18:35.787Z,13.97
2023-04-26T11:21:05.948Z,13.97
2023-04-26T11:23:35.608Z,14.20
2023-04-26T11:26:05.613Z,14.20
2023-04-26T11:28:35.201Z,14.26
2023-04-26T11:31:04.641Z,14.39
2023-04-26T11:33:35.503Z,14.05
2023-04-26T11:36:04.742Z,13.98
2023-04-26T11:38:33.231Z,13.85
2023-04-26T11:41:03.319Z,13.75
2023-04-26T11:43:35.860Z,13.64
2023-04-26T11:46:05.379Z,13.88
2023-04-26T11:48:37.106Z,13.95
2023-04-26T11:51:07.784Z,13.94
2023-04-26T11:53:37.876Z,13.82
2023-04-26T11:56:14.661Z,13.86
2023-04-26T11:58:46.277Z,13.83
2023-04-26T12:01:22.889Z,13.90
2023-04-26T12:03:54.520Z,13.97
2023-04-26T12:06:31.290Z,14.06
2023-04-26T12:08:59.941Z,13.95
2023-04-26T12:11:28.887Z,14.13
2023-04-26T12:14:01.721Z,14.24
2023-04-26T12:16:30.480Z,14.14
2023-04-26T12:19:00.624Z,14.15
2023-04-26T12:21:30.849Z,14.08
2023-04-26T12:23:59.789Z,14.16
2023-04-26T12:26:45.097Z,14.19
2023-04-26T12:29:13.895Z,14.35
2023-04-26T12:31:42.742Z,14.29
2023-04-26T12:34:13.274Z,13.98
2023-04-26T12:36:43.596Z,14.00
2023-04-26T12:39:13.847Z,13.75
2023-04-26T12:41:42.732Z,13.72
2023-04-26T12:44:12.329Z,13.68
2023-04-26T12:46:41.055Z,13.76
2023-04-26T12:49:09.805Z,13.76
2023-04-26T12:51:39.975Z,13.83
2023-04-26T12:54:08.770Z,13.80
2023-04-26T12:56:43.875Z,14.03
2023-04-26T12:59:12.717Z,14.33
2023-04-26T13:01:41.497Z,14.29
2023-04-26T13:04:10.271Z,14.27
2023-04-26T13:06:40.413Z,14.25
2023-04-26T13:09:09.721Z,14.08
2023-04-26T13:11:38.330Z,13.95
2023-04-26T13:14:07.863Z,14.03
2023-04-26T13:16:36.531Z,13.89
2023-04-26T13:19:05.492Z,13.52
2023-04-26T13:21:34.176Z,13.16
2023-04-26T13:24:04.443Z,13.18
2023-04-26T13:26:33.156Z,13.31
2023-04-26T13:29:01.755Z,13.36
2023-04-26T13:31:30.539Z,13.33
2023-04-26T13:33:59.117Z,13.33
2023-04-26T13:36:28.192Z,13.02
2023-04-26T13:38:56.862Z,12.74
2023-04-26T13:41:26.991Z,12.68
2023-04-26T13:43:55.631Z,12.59
2023-04-26T13:46:24.269Z,12.53
2023-04-26T13:48:53.011Z,12.59
2023-04-26T13:51:21.710Z,12.55
2023-04-26T13:53:50.447Z,12.51
2023-04-26T13:56:20.116Z,12.53
2023-04-26T13:58:50.453Z,12.39
2023-04-26T14:01:19.356Z,12.07
2023-04-26T14:03:48.126Z,12.07
2023-04-26T14:06:17.050Z,12.03
2023-04-26T14:08:45.609Z,11.80
2023-04-26T14:11:17.386Z,11.59
2023-04-26T14:13:45.969Z,11.51
2023-04-26T14:16:15.965Z,11.41
2023-04-26T14:18:45.628Z,11.12
2023-04-26T14:21:14.314Z,11.03
2023-04-26T14:23:42.986Z,10.94
2023-04-26T14:26:12.921Z,10.67
2023-04-26T14:28:42.042Z,10.51
2023-04-26T14:31:10.986Z,10.49
2023-04-26T14:33:41.217Z,10.28
2023-04-26T14:36:10.058Z,10.22
2023-04-26T14:38:38.701Z,10.04
2023-04-26T14:41:07.675Z,9.80
2023-04-26T14:43:36.115Z,9.55
2023-04-26T14:46:05.036Z,9.55
2023-04-26T14:48:33.650Z,9.51
2023-04-26T14:51:03.682Z,9.36
2023-04-26T14:53:32.401Z,9.21
2023-04-26T14:56:02.170Z,9.06
2023-04-26T14:58:30.810Z,8.89
2023-04-26T15:00:59.503Z,8.75
2023-04-26T15:03:28.389Z,8.64
2023-04-26T15:05:57.108Z,8.53
2023-04-26T15:08:27.862Z,8.47
2023-04-26T15:10:56.484Z,8.36
2023-04-26T15:13:25.044Z,8.15
2023-04-26T15:15:53.609Z,8.03
2023-04-26T15:18:22.644Z,8.07
2023-04-26T15:20:51.264Z,7.89
2023-04-26T15:23:20.263Z,8.01
2023-04-26T15:25:50.463Z,7.86
2023-04-26T15:28:19.119Z,7.63
2023-04-26T15:30:48.069Z,7.60
2023-04-26T15:33:18.634Z,7.66
2023-04-26T15:35:47.600Z,7.48
2023-04-26T15:38:16.154Z,7.54
2023-04-26T15:40:45.309Z,7.56
2023-04-26T15:43:16.452Z,7.57
2023-04-26T15:45:45.137Z,7.50
2023-04-26T15:48:14.092Z,7.51
2023-04-26T15:50:42.714Z,7.34
2023-04-26T15:53:11.591Z,7.37
2023-04-26T15:55:40.140Z,7.37
2023-04-26T15:58:08.749Z,7.11
2023-04-26T16:00:39.010Z,7.15
2023-04-26T16:03:08.267Z,7.09
2023-04-26T16:05:37.052Z,7.15
2023-04-26T16:08:06.229Z,7.07
2023-04-26T16:10:35.870Z,6.99
2023-04-26T16:13:06.222Z,6.79
2023-04-26T16:15:34.969Z,6.83
2023-04-26T16:18:05.106Z,6.62
2023-04-26T16:20:33.807Z,6.58
2023-04-26T16:23:02.424Z,6.55
2023-04-26T16:25:31.942Z,6.51
2023-04-26T16:28:00.509Z,6.43
2023-04-26T16:30:29.132Z,6.56
2023-04-26T16:32:57.697Z,6.50
2023-04-26T16:35:27.753Z,6.44
2023-04-26T16:37:56.329Z,6.27
2023-04-26T16:40:24.894Z,6.38
2023-04-26T16:42:53.403Z,6.39
2023-04-26T16:45:22.262Z,6.36
2023-04-26T16:47:50.879Z,6.41
2023-04-26T16:50:19.399Z,6.35
2023-04-26T16:52:49.521Z,6.39
2023-04-26T16:55:18.425Z,6.32
2023-04-26T16:57:46.858Z,6.10
2023-04-26T17:00:16.810Z,5.97
2023-04-26T17:02:45.410Z,6.06
2023-04-26T17:05:14.748Z,6.12
2023-04-26T17:07:43.290Z,6.10
2023-04-26T17:10:13.453Z,6.09
2023-04-26T17:12:42.202Z,5.96
2023-04-26T17:15:12.211Z,5.86
2023-04-26T17:17:41.382Z,5.80
2023-04-26T17:20:13.697Z,5.77
2023-04-26T17:22:42.240Z,5.76
2023-04-26T17:25:12.767Z,5.77
2023-04-26T17:27:42.094Z,5.62
2023-04-26T17:30:11.074Z,5.60
2023-04-26T17:32:39.674Z,5.68
2023-04-26T17:35:08.961Z,5.69
2023-04-26T17:37:37.501Z,5.70
2023-04-26T17:40:08.411Z,5.62
2023-04-26T17:42:38.231Z,5.66
2023-04-26T17:45:07.822Z,5.68
2023-04-26T17:47:36.660Z,5.61
2023-04-26T17:50:05.271Z,5.57
2023-04-26T17:52:33.789Z,5.60
2023-04-26T17:55:02.239Z,5.62
2023-04-26T17:57:30.776Z,5.54
2023-04-26T18:00:00.701Z,5.49
2023-04-26T18:02:29.527Z,5.55
2023-04-26T18:04:58.185Z,5.57
2023-04-26T18:07:26.898Z,5.51
2023-04-26T18:09:55.492Z,5.54
2023-04-26T18:12:23.983Z,5.51
2023-04-26T18:14:52.597Z,5.45
2023-04-26T18:17:22.799Z,5.47
2023-04-26T18:19:51.500Z,5.46
2023-04-26T18:22:20.616Z,5.44
2023-04-26T18:24:49.226Z,5.38
2023-04-26T18:27:17.758Z,5.30
2023-04-26T18:29:46.502Z,5.41
2023-04-26T18:32:15.221Z,5.45
2023-04-26T18:34:56.728Z,5.46
2023-04-26T18:37:25.858Z,5.40
2023-04-26T18:39:54.368Z,5.46
2023-04-26T18:42:23.097Z,5.44
2023-04-26T18:44:51.627Z,5.34
2023-04-26T18:47:41.588Z,5.34
2023-04-26T18:50:12.348Z,5.43
2023-04-26T18:52:40.883Z,5.42
2023-04-26T18:55:10.094Z,5.44
2023-04-26T18:57:38.596Z,5.36
2023-04-26T19:00:09.420Z,5.34
2023-04-26T19:02:40.340Z,5.37
2023-04-26T19:05:12.253Z,5.41
2023-04-26T19:07:41.968Z,5.30
2023-04-26T19:10:11.534Z,5.30
2023-04-26T19:12:40.064Z,5.36
2023-04-26T19:15:09.607Z,5.28
2023-04-26T19:17:38.355Z,5.33
2023-04-26T19:20:10.601Z,5.32
2023-04-26T19:22:41.984Z,5.35
2023-04-26T19:25:11.684Z,5.27
2023-04-26T19:27:40.243Z,5.29
2023-04-26T19:30:09.947Z,5.36
2023-04-26T19:32:38.563Z,5.38
2023-04-26T19:35:07.622Z,5.42
2023-04-26T19:37:36.253Z,5.39
2023-04-26T19:40:07.643Z,5.42
2023-04-26T19:42:36.067Z,5.39
2023-04-26T19:45:04.661Z,5.37
2023-04-26T19:47:33.233Z,5.35
2023-04-26T19:50:01.804Z,5.37
2023-04-26T19:52:30.281Z,5.37
2023-04-26T19:54:58.808Z,5.41
2023-04-26T19:57:28.970Z,5.43
2023-04-26T19:59:57.463Z,5.47
2023-04-26T20:02:26.134Z,5.44
2023-04-26T20:04:54.750Z,5.28
2023-04-26T20:07:23.325Z,5.31
2023-04-26T20:09:51.971Z,5.33
2023-04-26T20:12:47.416Z,5.34
2023-04-26T20:15:16.432Z,5.29
2023-04-26T20:17:45.096Z,5.25
2023-04-26T20:20:14.150Z,5.21
2023-04-26T20:23:03.904Z,5.16
2023-04-26T20:25:33.188Z,5.15
2023-04-26T20:28:04.466Z,5.15
2023-04-26T20:30:33.966Z,5.18
2023-04-26T20:33:02.601Z,5.16
2023-04-26T20:35:31.462Z,5.09
2023-04-26T20:38:00.002Z,5.02
2023-04-26T20:40:28.783Z,5.05
2023-04-26T20:42:57.267Z,5.06
2023-04-26T20:45:27.323Z,5.06
2023-04-26T20:47:56.017Z,5.03
2023-04-26T20:50:24.860Z,5.02
2023-04-26T20:52:53.337Z,4.99
2023-04-26T20:55:22.810Z,4.99
2023-04-26T20:57:51.341Z,5.00
2023-04-26T21:00:20.626Z,5.00
2023-04-26T21:02:51.064Z,4.96
2023-04-26T21:05:19.826Z,4.94
2023-04-26T21:07:48.704Z,4.93
2023-04-26T21:10:17.628Z,4.96
2023-04-26T21:12:46.204Z,4.95
2023-04-26T21:15:14.942Z,4.96
2023-04-26T21:17:43.560Z,4.94
2023-04-26T21:20:14.406Z,4.89
2023-04-26T21:22:43.026Z,4.86
2023-04-26T21:25:13.702Z,4.86
2023-04-26T21:27:42.644Z,4.86
2023-04-26T21:30:12.633Z,4.93
2023-04-26T21:32:42.047Z,4.96
2023-04-26T21:35:11.757Z,4.97
2023-04-26T21:37:41.903Z,4.95
2023-04-26T21:40:11.411Z,4.93
2023-04-26T21:42:39.916Z,4.91
2023-04-26T21:45:09.986Z,4.90
2023-04-26T21:47:38.731Z,4.92
2023-04-26T21:50:08.148Z,4.95
2023-04-26T21:52:36.627Z,4.96
2023-04-26T21:55:07.985Z,4.96
2023-04-26T21:57:36.727Z,4.92
2023-04-26T22:00:08.516Z,4.92
2023-04-26T22:02:42.397Z,4.91
2023-04-26T22:05:11.918Z,4.90
2023-04-26T22:07:40.483Z,4.90
2023-04-26T22:10:12.091Z,4.89
2023-04-26T22:12:40.787Z,4.92
2023-04-26T22:15:10.034Z,5.01
2023-04-26T22:17:38.734Z,5.05
2023-04-26T22:20:08.350Z,5.08
2023-04-26T22:22:37.055Z,5.22
2023-04-26T22:25:06.124Z,5.28
2023-04-26T22:27:36.151Z,5.41
2023-04-26T22:30:20.353Z,5.36
2023-04-26T22:32:54.949Z,5.39
2023-04-26T22:35:24.083Z,5.41
2023-04-26T22:37:52.795Z,5.48
2023-04-26T22:40:21.651Z,5.42
2023-04-26T22:42:51.829Z,5.35
2023-04-26T22:45:20.924Z,5.29
2023-04-26T22:47:49.412Z,5.24
2023-04-26T22:50:18.060Z,5.23
2023-04-26T22:52:46.493Z,5.28
2023-04-26T22:55:15.086Z,4.98
2023-04-26T22:57:44.433Z,4.95
2023-04-26T23:00:16.197Z,4.91
2023-04-26T23:02:44.878Z,4.88
2023-04-26T23:05:13.692Z,4.79
2023-04-26T23:07:42.410Z,4.78
2023-04-26T23:10:11.557Z,4.81
2023-04-26T23:12:40.835Z,4.70
2023-04-26T23:15:10.082Z,4.75
2023-04-26T23:17:42.001Z,4.78
2023-04-26T23:20:14.259Z,4.79
2023-04-26T23:22:43.923Z,4.78
2023-04-26T23:25:12.368Z,4.80
2023-04-26T23:27:41.097Z,4.82
2023-04-26T23:30:10.602Z,4.82
2023-04-26T23:32:40.854Z,4.81
2023-04-26T23:35:10.254Z,4.81
2023-04-26T23:37:38.797Z,4.77
2023-04-26T23:40:09.690Z,4.80
2023-04-26T23:42:38.219Z,4.76
2023-04-26T23:45:08.029Z,4.81
2023-04-26T23:47:36.680Z,4.79
2023-04-26T23:50:07.665Z,4.78
2023-04-26T23:52:36.266Z,4.81
2023-04-26T23:55:04.912Z,4.77
2023-04-26T23:57:33.526Z,4.80
